sensor_id;sensor_type;location;lat;lon;timestamp;pressure;altitude;pressure_sealevel;temperature;humidity
53715;BME280;39608;55.630;37.864;2023-04-25T00:03:59;99323.38;;;14.10;37.24
53715;BME280;39608;55.630;37.864;2023-04-25T00:09:02;99330.91;;;14.13;38.22
53715;BME280;39608;55.630;37.864;2023-04-25T00:14:04;99344.84;;;14.20;38.23
53715;BME280;39608;55.630;37.864;2023-04-25T00:19:08;99333.63;;;14.22;38.34
53715;BME280;39608;55.630;37.864;2023-04-25T00:24:10;99330.59;;;14.15;39.04
53715;BME280;39608;55.630;37.864;2023-04-25T00:29:12;99336.34;;;14.04;39.55
53715;BME280;39608;55.630;37.864;2023-04-25T00:34:16;99332.03;;;13.95;39.67
53715;BME280;39608;55.630;37.864;2023-04-25T00:39:18;99325.66;;;13.91;40.01
53715;BME280;39608;55.630;37.864;2023-04-25T00:44:20;99315.84;;;13.90;39.64
53715;BME280;39608;55.630;37.864;2023-04-25T00:49:23;99315.34;;;13.88;40.21
53715;BME280;39608;55.630;37.864;2023-04-25T00:54:25;99307.03;;;13.84;40.69
53715;BME280;39608;55.630;37.864;2023-04-25T00:59:27;99297.72;;;13.85;40.87
53715;BME280;39608;55.630;37.864;2023-04-25T01:04:31;99302.19;;;13.98;40.34
53715;BME280;39608;55.630;37.864;2023-04-25T01:09:34;99288.44;;;13.86;41.14
53715;BME280;39608;55.630;37.864;2023-04-25T01:14:35;99279.28;;;13.91;41.23
53715;BME280;39608;55.630;37.864;2023-04-25T01:19:39;99263.06;;;13.94;40.38
53715;BME280;39608;55.630;37.864;2023-04-25T01:24:42;99283.44;;;13.97;41.02
53715;BME280;39608;55.630;37.864;2023-04-25T01:29:45;99281.81;;;14.04;40.73
53715;BME280;39608;55.630;37.864;2023-04-25T01:34:47;99263.41;;;13.93;40.87
53715;BME280;39608;55.630;37.864;2023-04-25T01:39:51;99280.38;;;14.07;40.98
53715;BME280;39608;55.630;37.864;2023-04-25T01:44:54;99273.97;;;14.12;40.97
53715;BME280;39608;55.630;37.864;2023-04-25T01:49:56;99264.31;;;14.14;40.79
53715;BME280;39608;55.630;37.864;2023-04-25T01:54:59;99261.06;;;14.38;40.57
53715;BME280;39608;55.630;37.864;2023-04-25T02:00:06;99260.19;;;14.55;40.19
53715;BME280;39608;55.630;37.864;2023-04-25T02:05:09;99275.16;;;14.49;40.57
53715;BME280;39608;55.630;37.864;2023-04-25T02:10:12;99279.94;;;14.52;40.62
53715;BME280;39608;55.630;37.864;2023-04-25T02:15:14;99298.25;;;14.43;40.90
53715;BME280;39608;55.630;37.864;2023-04-25T02:20:16;99288.88;;;14.06;41.66
53715;BME280;39608;55.630;37.864;2023-04-25T02:25:20;99298.03;;;14.01;41.34
53715;BME280;39608;55.630;37.864;2023-04-25T02:30:22;99283.16;;;13.81;42.07
53715;BME280;39608;55.630;37.864;2023-04-25T02:35:24;99293.25;;;13.98;41.79
53715;BME280;39608;55.630;37.864;2023-04-25T02:40:28;99294.81;;;13.99;41.84
53715;BME280;39608;55.630;37.864;2023-04-25T02:45:30;99288.25;;;13.91;42.02
53715;BME280;39608;55.630;37.864;2023-04-25T02:50:32;99301.41;;;13.98;41.98
53715;BME280;39608;55.630;37.864;2023-04-25T02:55:35;99294.22;;;13.76;42.79
53715;BME280;39608;55.630;37.864;2023-04-25T03:00:37;99292.75;;;13.69;42.96
53715;BME280;39608;55.630;37.864;2023-04-25T03:05:39;99303.81;;;13.82;42.99
53715;BME280;39608;55.630;37.864;2023-04-25T03:10:43;99311.19;;;13.81;42.93
53715;BME280;39608;55.630;37.864;2023-04-25T03:15:45;99324.34;;;13.97;42.93
53715;BME280;39608;55.630;37.864;2023-04-25T03:20:47;99319.38;;;13.90;43.63
53715;BME280;39608;55.630;37.864;2023-04-25T03:25:50;99318.59;;;13.90;43.76
53715;BME280;39608;55.630;37.864;2023-04-25T03:30:52;99322.59;;;13.75;44.54
53715;BME280;39608;55.630;37.864;2023-04-25T03:35:54;99318.91;;;13.88;43.73
53715;BME280;39608;55.630;37.864;2023-04-25T03:40:58;99308.47;;;13.81;44.26
53715;BME280;39608;55.630;37.864;2023-04-25T03:46:00;99311.31;;;14.11;43.66
53715;BME280;39608;55.630;37.864;2023-04-25T03:51:02;99319.38;;;14.08;44.21
53715;BME280;39608;55.630;37.864;2023-04-25T03:56:06;99307.19;;;14.05;44.15
53715;BME280;39608;55.630;37.864;2023-04-25T04:01:08;99306.53;;;13.99;44.61
53715;BME280;39608;55.630;37.864;2023-04-25T04:06:10;99295.00;;;13.94;44.66
53715;BME280;39608;55.630;37.864;2023-04-25T04:11:15;99317.28;;;13.96;45.15
53715;BME280;39608;55.630;37.864;2023-04-25T04:16:17;99298.66;;;14.07;44.65
53715;BME280;39608;55.630;37.864;2023-04-25T04:21:19;99287.94;;;14.10;44.58
53715;BME280;39608;55.630;37.864;2023-04-25T04:26:22;99309.84;;;14.23;44.80
53715;BME280;39608;55.630;37.864;2023-04-25T04:31:24;99308.44;;;14.16;45.41
53715;BME280;39608;55.630;37.864;2023-04-25T04:36:26;99316.91;;;14.24;45.34
53715;BME280;39608;55.630;37.864;2023-04-25T04:41:30;99305.81;;;14.37;45.06
53715;BME280;39608;55.630;37.864;2023-04-25T04:46:32;99302.28;;;14.46;45.15
53715;BME280;39608;55.630;37.864;2023-04-25T04:51:38;99309.94;;;15.00;44.35
53715;BME280;39608;55.630;37.864;2023-04-25T04:56:42;99305.00;;;15.86;42.95
53715;BME280;39608;55.630;37.864;2023-04-25T05:01:44;99296.44;;;16.42;42.12
53715;BME280;39608;55.630;37.864;2023-04-25T05:06:47;99302.31;;;16.90;41.44
53715;BME280;39608;55.630;37.864;2023-04-25T05:11:50;99281.59;;;17.30;40.66
53715;BME280;39608;55.630;37.864;2023-04-25T05:16:52;99279.13;;;17.66;40.10
53715;BME280;39608;55.630;37.864;2023-04-25T05:21:54;99300.69;;;18.08;39.20
53715;BME280;39608;55.630;37.864;2023-04-25T05:26:58;99288.72;;;17.59;39.84
53715;BME280;39608;55.630;37.864;2023-04-25T05:32:00;99280.59;;;17.22;40.41
53715;BME280;39608;55.630;37.864;2023-04-25T05:37:02;99295.78;;;17.73;39.73
53715;BME280;39608;55.630;37.864;2023-04-25T05:42:05;99292.88;;;19.02;37.97
53715;BME280;39608;55.630;37.864;2023-04-25T05:47:17;99212.56;;;19.67;36.27
53715;BME280;39608;55.630;37.864;2023-04-25T05:52:19;99277.03;;;20.75;34.99
53715;BME280;39608;55.630;37.864;2023-04-25T05:57:25;99274.31;;;21.32;34.42
53715;BME280;39608;55.630;37.864;2023-04-25T06:02:30;99274.19;;;22.20;33.01
53715;BME280;39608;55.630;37.864;2023-04-25T06:07:32;99265.88;;;22.58;32.56
53715;BME280;39608;55.630;37.864;2023-04-25T06:12:36;99256.34;;;23.03;31.74
53715;BME280;39608;55.630;37.864;2023-04-25T06:17:38;99250.22;;;23.39;30.75
53715;BME280;39608;55.630;37.864;2023-04-25T06:22:41;99246.66;;;23.38;30.72
53715;BME280;39608;55.630;37.864;2023-04-25T06:27:45;99248.16;;;23.21;31.09
53715;BME280;39608;55.630;37.864;2023-04-25T06:32:47;99248.69;;;23.45;30.41
53715;BME280;39608;55.630;37.864;2023-04-25T06:37:49;99242.50;;;23.84;28.84
53715;BME280;39608;55.630;37.864;2023-04-25T06:42:52;99248.94;;;24.39;28.47
53715;BME280;39608;55.630;37.864;2023-04-25T06:47:54;99244.63;;;24.67;27.11
53715;BME280;39608;55.630;37.864;2023-04-25T06:52:56;99252.50;;;24.54;27.54
53715;BME280;39608;55.630;37.864;2023-04-25T06:58:00;99247.00;;;24.61;27.41
53715;BME280;39608;55.630;37.864;2023-04-25T07:03:02;99243.00;;;24.73;27.06
53715;BME280;39608;55.630;37.864;2023-04-25T07:08:06;99247.00;;;24.61;27.12
53715;BME280;39608;55.630;37.864;2023-04-25T07:13:09;99238.63;;;24.47;27.37
53715;BME280;39608;55.630;37.864;2023-04-25T07:18:11;99244.19;;;24.57;26.97
53715;BME280;39608;55.630;37.864;2023-04-25T07:23:15;99248.94;;;24.89;26.52
53715;BME280;39608;55.630;37.864;2023-04-25T07:28:18;99253.25;;;25.08;26.22
53715;BME280;39608;55.630;37.864;2023-04-25T07:33:20;99241.44;;;24.68;26.01
53715;BME280;39608;55.630;37.864;2023-04-25T07:38:23;99244.16;;;24.54;26.48
53715;BME280;39608;55.630;37.864;2023-04-25T07:43:27;99246.56;;;24.52;26.69
53715;BME280;39608;55.630;37.864;2023-04-25T07:48:29;99256.09;;;24.76;26.61
53715;BME280;39608;55.630;37.864;2023-04-25T07:53:31;99252.13;;;24.73;26.71
53715;BME280;39608;55.630;37.864;2023-04-25T07:58:36;99244.56;;;24.16;27.44
53715;BME280;39608;55.630;37.864;2023-04-25T08:03:38;99233.50;;;24.16;27.35
53715;BME280;39608;55.630;37.864;2023-04-25T08:08:40;99245.72;;;23.97;27.25
53715;BME280;39608;55.630;37.864;2023-04-25T08:13:44;99245.75;;;24.19;27.17
53715;BME280;39608;55.630;37.864;2023-04-25T08:18:46;99241.00;;;24.12;27.05
53715;BME280;39608;55.630;37.864;2023-04-25T08:23:48;99228.34;;;24.51;25.98
53715;BME280;39608;55.630;37.864;2023-04-25T08:28:51;99229.16;;;24.66;25.47
53715;BME280;39608;55.630;37.864;2023-04-25T08:33:53;99219.56;;;25.03;25.29
53715;BME280;39608;55.630;37.864;2023-04-25T08:38:55;99221.13;;;25.11;25.04
53715;BME280;39608;55.630;37.864;2023-04-25T08:43:59;99192.59;;;25.21;25.07
53715;BME280;39608;55.630;37.864;2023-04-25T08:49:02;99216.03;;;25.91;24.19
53715;BME280;39608;55.630;37.864;2023-04-25T08:54:08;99210.13;;;26.45;23.89
53715;BME280;39608;55.630;37.864;2023-04-25T08:59:12;99205.25;;;26.60;23.44
53715;BME280;39608;55.630;37.864;2023-04-25T09:04:15;99207.91;;;26.22;23.00
53715;BME280;39608;55.630;37.864;2023-04-25T09:09:17;99204.91;;;25.98;22.64
53715;BME280;39608;55.630;37.864;2023-04-25T09:14:22;99181.63;;;26.37;22.72
53715;BME280;39608;55.630;37.864;2023-04-25T09:19:29;99188.13;;;26.61;22.46
53715;BME280;39608;55.630;37.864;2023-04-25T09:24:36;99179.31;;;26.70;21.90
53715;BME280;39608;55.630;37.864;2023-04-25T09:29:40;99182.84;;;27.12;21.50
53715;BME280;39608;55.630;37.864;2023-04-25T09:34:44;99173.75;;;27.08;21.25
53715;BME280;39608;55.630;37.864;2023-04-25T09:39:50;99167.84;;;26.61;21.80
53715;BME280;39608;55.630;37.864;2023-04-25T09:44:54;99180.56;;;26.62;22.09
53715;BME280;39608;55.630;37.864;2023-04-25T09:49:57;99170.50;;;26.79;22.05
53715;BME280;39608;55.630;37.864;2023-04-25T09:54:59;99160.16;;;26.79;22.16
53715;BME280;39608;55.630;37.864;2023-04-25T10:00:02;99152.22;;;26.36;22.63
53715;BME280;39608;55.630;37.864;2023-04-25T10:05:11;99149.63;;;25.55;23.05
53715;BME280;39608;55.630;37.864;2023-04-25T10:10:13;99139.66;;;25.61;23.65
53715;BME280;39608;55.630;37.864;2023-04-25T10:15:17;99137.50;;;26.39;22.53
53715;BME280;39608;55.630;37.864;2023-04-25T10:20:21;99124.94;;;26.62;22.27
53715;BME280;39608;55.630;37.864;2023-04-25T10:25:24;99125.84;;;26.90;22.22
53715;BME280;39608;55.630;37.864;2023-04-25T10:30:27;99121.81;;;27.83;21.41
53715;BME280;39608;55.630;37.864;2023-04-25T10:35:30;99110.31;;;27.81;20.88
53715;BME280;39608;55.630;37.864;2023-04-25T10:40:33;99099.91;;;27.58;21.17
53715;BME280;39608;55.630;37.864;2023-04-25T10:45:54;99101.84;;;27.34;21.50
53715;BME280;39608;55.630;37.864;2023-04-25T10:51:09;99103.19;;;26.11;22.39
53715;BME280;39608;55.630;37.864;2023-04-25T10:56:17;99090.81;;;25.67;22.60
53715;BME280;39608;55.630;37.864;2023-04-25T11:01:24;99097.81;;;25.90;22.88
53715;BME280;39608;55.630;37.864;2023-04-25T11:06:30;99085.56;;;26.29;22.68
53715;BME280;39608;55.630;37.864;2023-04-25T11:11:36;99088.31;;;26.71;22.50
53715;BME280;39608;55.630;37.864;2023-04-25T11:16:39;99065.13;;;26.46;22.52
53715;BME280;39608;55.630;37.864;2023-04-25T11:21:41;99074.06;;;25.82;23.24
53715;BME280;39608;55.630;37.864;2023-04-25T11:26:46;99067.50;;;26.06;22.92
53715;BME280;39608;55.630;37.864;2023-04-25T11:31:50;99062.50;;;26.32;23.23
53715;BME280;39608;55.630;37.864;2023-04-25T11:36:53;99050.22;;;26.26;23.24
53715;BME280;39608;55.630;37.864;2023-04-25T11:41:55;99045.66;;;26.08;23.19
53715;BME280;39608;55.630;37.864;2023-04-25T11:46:58;99045.41;;;25.36;23.88
53715;BME280;39608;55.630;37.864;2023-04-25T11:52:00;99030.66;;;25.46;23.87
53715;BME280;39608;55.630;37.864;2023-04-25T11:57:04;99024.28;;;25.53;23.72
53715;BME280;39608;55.630;37.864;2023-04-25T12:02:07;99008.44;;;24.79;24.98
53715;BME280;39608;55.630;37.864;2023-04-25T12:07:13;99008.09;;;24.70;24.78
53715;BME280;39608;55.630;37.864;2023-04-25T12:12:17;98999.44;;;24.57;24.80
53715;BME280;39608;55.630;37.864;2023-04-25T12:17:22;98992.41;;;24.20;24.93
53715;BME280;39608;55.630;37.864;2023-04-25T12:22:25;98984.09;;;24.20;25.29
53715;BME280;39608;55.630;37.864;2023-04-25T12:27:28;98971.06;;;24.06;25.43
53715;BME280;39608;55.630;37.864;2023-04-25T12:32:37;98965.94;;;23.75;25.75
53715;BME280;39608;55.630;37.864;2023-04-25T12:37:39;98962.03;;;23.48;26.01
53715;BME280;39608;55.630;37.864;2023-04-25T12:42:42;98950.16;;;23.47;26.24
53715;BME280;39608;55.630;37.864;2023-04-25T12:47:46;98940.28;;;23.50;26.01
53715;BME280;39608;55.630;37.864;2023-04-25T12:52:48;98937.13;;;23.44;26.30
53715;BME280;39608;55.630;37.864;2023-04-25T12:57:52;98931.16;;;23.82;25.81
53715;BME280;39608;55.630;37.864;2023-04-25T13:02:55;98935.41;;;24.19;25.38
53715;BME280;39608;55.630;37.864;2023-04-25T13:07:57;98925.91;;;24.23;24.84
53715;BME280;39608;55.630;37.864;2023-04-25T13:13:00;98924.25;;;24.37;24.78
53715;BME280;39608;55.630;37.864;2023-04-25T13:18:04;98907.72;;;24.15;25.02
53715;BME280;39608;55.630;37.864;2023-04-25T13:23:07;98900.03;;;24.52;25.25
53715;BME280;39608;55.630;37.864;2023-04-25T13:28:09;98886.91;;;25.23;23.96
53715;BME280;39608;55.630;37.864;2023-04-25T13:33:12;98893.97;;;25.31;24.10
53715;BME280;39608;55.630;37.864;2023-04-25T13:38:14;98882.88;;;25.27;24.04
53715;BME280;39608;55.630;37.864;2023-04-25T13:43:18;98874.28;;;25.15;23.77
53715;BME280;39608;55.630;37.864;2023-04-25T13:48:21;98865.28;;;25.00;23.89
53715;BME280;39608;55.630;37.864;2023-04-25T13:53:24;98859.91;;;24.74;23.86
53715;BME280;39608;55.630;37.864;2023-04-25T13:58:26;98840.28;;;24.43;24.13
53715;BME280;39608;55.630;37.864;2023-04-25T14:03:29;98839.63;;;24.21;24.63
53715;BME280;39608;55.630;37.864;2023-04-25T14:08:31;98830.34;;;23.61;24.22
53715;BME280;39608;55.630;37.864;2023-04-25T14:13:33;98816.19;;;22.87;24.93
53715;BME280;39608;55.630;37.864;2023-04-25T14:18:37;98813.00;;;22.42;25.26
53715;BME280;39608;55.630;37.864;2023-04-25T14:23:39;98803.84;;;22.19;26.06
53715;BME280;39608;55.630;37.864;2023-04-25T14:28:41;98804.97;;;21.97;26.54
53715;BME280;39608;55.630;37.864;2023-04-25T14:33:44;98802.16;;;21.86;26.46
53715;BME280;39608;55.630;37.864;2023-04-25T14:38:46;98788.34;;;21.79;25.93
53715;BME280;39608;55.630;37.864;2023-04-25T14:43:48;98772.50;;;21.65;26.02
53715;BME280;39608;55.630;37.864;2023-04-25T14:48:52;98776.84;;;21.62;25.64
53715;BME280;39608;55.630;37.864;2023-04-25T14:53:56;98759.06;;;21.52;26.15
53715;BME280;39608;55.630;37.864;2023-04-25T14:58:59;98749.59;;;21.53;26.18
53715;BME280;39608;55.630;37.864;2023-04-25T15:04:02;98748.06;;;21.63;25.90
53715;BME280;39608;55.630;37.864;2023-04-25T15:09:05;98733.81;;;21.50;26.36
53715;BME280;39608;55.630;37.864;2023-04-25T15:14:07;98724.31;;;21.48;26.59
53715;BME280;39608;55.630;37.864;2023-04-25T15:19:10;98719.66;;;21.56;26.56
53715;BME280;39608;55.630;37.864;2023-04-25T15:24:12;98707.75;;;21.44;26.69
53715;BME280;39608;55.630;37.864;2023-04-25T15:29:15;98701.84;;;21.46;26.63
53715;BME280;39608;55.630;37.864;2023-04-25T15:34:19;98692.75;;;21.38;26.93
53715;BME280;39608;55.630;37.864;2023-04-25T15:39:21;98689.59;;;21.36;26.98
53715;BME280;39608;55.630;37.864;2023-04-25T15:44:24;98691.63;;;21.46;26.66
53715;BME280;39608;55.630;37.864;2023-04-25T15:49:27;98679.34;;;21.33;27.32
53715;BME280;39608;55.630;37.864;2023-04-25T15:54:29;98662.31;;;21.13;27.60
53715;BME280;39608;55.630;37.864;2023-04-25T15:59:31;98657.22;;;21.22;27.77
53715;BME280;39608;55.630;37.864;2023-04-25T16:04:35;98661.94;;;21.14;27.30
53715;BME280;39608;55.630;37.864;2023-04-25T16:09:38;98644.53;;;20.96;28.03
53715;BME280;39608;55.630;37.864;2023-04-25T16:14:40;98638.19;;;20.92;28.16
53715;BME280;39608;55.630;37.864;2023-04-25T16:19:43;98638.19;;;20.92;27.84
53715;BME280;39608;55.630;37.864;2023-04-25T16:24:46;98640.44;;;20.72;28.27
53715;BME280;39608;55.630;37.864;2023-04-25T16:29:48;98653.88;;;20.28;31.18
53715;BME280;39608;55.630;37.864;2023-04-25T16:34:52;98661.91;;;19.62;33.17
53715;BME280;39608;55.630;37.864;2023-04-25T16:39:54;98658.56;;;19.11;35.39
53715;BME280;39608;55.630;37.864;2023-04-25T16:44:56;98661.59;;;18.76;36.66
53715;BME280;39608;55.630;37.864;2023-04-25T16:50:00;98664.22;;;18.42;37.36
53715;BME280;39608;55.630;37.864;2023-04-25T16:55:05;98674.03;;;18.16;38.59
53715;BME280;39608;55.630;37.864;2023-04-25T17:00:09;98662.38;;;18.00;39.60
53715;BME280;39608;55.630;37.864;2023-04-25T17:05:14;98674.78;;;17.93;40.10
53715;BME280;39608;55.630;37.864;2023-04-25T17:10:16;98670.91;;;17.75;41.03
53715;BME280;39608;55.630;37.864;2023-04-25T17:15:20;98690.41;;;17.70;41.55
53715;BME280;39608;55.630;37.864;2023-04-25T17:20:23;98710.44;;;17.74;42.62
53715;BME280;39608;55.630;37.864;2023-04-25T17:25:26;98703.91;;;17.39;46.00
53715;BME280;39608;55.630;37.864;2023-04-25T17:30:28;98698.31;;;16.97;48.19
53715;BME280;39608;55.630;37.864;2023-04-25T17:35:31;98696.72;;;16.80;48.27
53715;BME280;39608;55.630;37.864;2023-04-25T17:40:34;98682.63;;;16.62;49.34
53715;BME280;39608;55.630;37.864;2023-04-25T17:45:36;98685.47;;;16.65;51.12
53715;BME280;39608;55.630;37.864;2023-04-25T17:50:40;98677.25;;;16.65;51.09
53715;BME280;39608;55.630;37.864;2023-04-25T17:55:42;98666.22;;;16.62;50.07
53715;BME280;39608;55.630;37.864;2023-04-25T18:00:44;98656.69;;;16.55;49.58
53715;BME280;39608;55.630;37.864;2023-04-25T18:05:48;98664.03;;;16.51;48.74
53715;BME280;39608;55.630;37.864;2023-04-25T18:10:50;98668.63;;;16.47;51.07
53715;BME280;39608;55.630;37.864;2023-04-25T18:15:55;98668.94;;;16.62;51.56
53715;BME280;39608;55.630;37.864;2023-04-25T18:20:58;98666.00;;;16.70;50.83
53715;BME280;39608;55.630;37.864;2023-04-25T18:26:04;98620.13;;;16.48;49.31
53715;BME280;39608;55.630;37.864;2023-04-25T18:31:10;98595.75;;;16.23;50.20
53715;BME280;39608;55.630;37.864;2023-04-25T18:36:17;98637.19;;;16.57;49.50
53715;BME280;39608;55.630;37.864;2023-04-25T18:41:19;98619.56;;;16.38;49.81
53715;BME280;39608;55.630;37.864;2023-04-25T18:46:23;98635.63;;;16.40;49.53
53715;BME280;39608;55.630;37.864;2023-04-25T18:51:27;98630.31;;;16.47;49.30
53715;BME280;39608;55.630;37.864;2023-04-25T18:56:31;98614.44;;;16.37;49.01
53715;BME280;39608;55.630;37.864;2023-04-25T19:01:33;98619.66;;;16.26;49.40
53715;BME280;39608;55.630;37.864;2023-04-25T19:06:37;98597.50;;;16.15;49.46
53715;BME280;39608;55.630;37.864;2023-04-25T19:11:39;98603.34;;;16.14;49.71
53715;BME280;39608;55.630;37.864;2023-04-25T19:16:42;98609.16;;;16.12;50.07
53715;BME280;39608;55.630;37.864;2023-04-25T19:21:45;98586.16;;;16.13;50.11
53715;BME280;39608;55.630;37.864;2023-04-25T19:26:50;98587.38;;;16.00;50.56
53715;BME280;39608;55.630;37.864;2023-04-25T19:31:52;98565.94;;;15.86;50.71
53715;BME280;39608;55.630;37.864;2023-04-25T19:36:58;98572.50;;;15.81;51.25
53715;BME280;39608;55.630;37.864;2023-04-25T19:42:00;98567.06;;;15.69;52.44
53715;BME280;39608;55.630;37.864;2023-04-25T19:47:04;98551.63;;;15.61;52.15
53715;BME280;39608;55.630;37.864;2023-04-25T19:52:07;98540.16;;;15.71;52.58
53715;BME280;39608;55.630;37.864;2023-04-25T19:57:14;98534.09;;;15.62;52.25
53715;BME280;39608;55.630;37.864;2023-04-25T20:02:16;98524.91;;;15.54;52.82
53715;BME280;39608;55.630;37.864;2023-04-25T20:07:22;98526.06;;;15.37;53.06
53715;BME280;39608;55.630;37.864;2023-04-25T20:12:24;98512.31;;;15.33;53.56
53715;BME280;39608;55.630;37.864;2023-04-25T20:17:26;98491.50;;;15.13;53.66
53715;BME280;39608;55.630;37.864;2023-04-25T20:22:30;98494.69;;;15.31;53.31
53715;BME280;39608;55.630;37.864;2023-04-25T20:27:36;98478.63;;;14.97;54.24
53715;BME280;39608;55.630;37.864;2023-04-25T20:32:38;98477.53;;;14.86;54.82
53715;BME280;39608;55.630;37.864;2023-04-25T20:37:42;98473.09;;;14.81;54.52
53715;BME280;39608;55.630;37.864;2023-04-25T20:42:44;98463.28;;;14.64;54.89
53715;BME280;39608;55.630;37.864;2023-04-25T20:47:46;98445.09;;;14.56;55.76
53715;BME280;39608;55.630;37.864;2023-04-25T20:52:50;98429.34;;;14.49;55.61
53715;BME280;39608;55.630;37.864;2023-04-25T20:57:53;98433.22;;;14.48;55.40
53715;BME280;39608;55.630;37.864;2023-04-25T21:02:56;98437.13;;;14.35;55.72
53715;BME280;39608;55.630;37.864;2023-04-25T21:07:59;98428.63;;;14.24;56.66
53715;BME280;39608;55.630;37.864;2023-04-25T21:13:02;98421.50;;;14.19;56.63
53715;BME280;39608;55.630;37.864;2023-04-25T21:18:04;98414.91;;;14.20;56.42
53715;BME280;39608;55.630;37.864;2023-04-25T21:23:08;98400.81;;;14.18;56.54
53715;BME280;39608;55.630;37.864;2023-04-25T21:28:10;98401.34;;;14.24;57.46
53715;BME280;39608;55.630;37.864;2023-04-25T21:33:12;98397.06;;;14.23;57.47
53715;BME280;39608;55.630;37.864;2023-04-25T21:38:16;98388.84;;;13.95;58.74
53715;BME280;39608;55.630;37.864;2023-04-25T21:43:18;98387.06;;;13.86;58.44
53715;BME280;39608;55.630;37.864;2023-04-25T21:48:21;98379.91;;;13.69;59.05
53715;BME280;39608;55.630;37.864;2023-04-25T21:53:24;98377.09;;;13.66;58.97
53715;BME280;39608;55.630;37.864;2023-04-25T21:58:27;98371.78;;;13.57;59.36
53715;BME280;39608;55.630;37.864;2023-04-25T22:03:29;98355.34;;;13.41;59.85
53715;BME280;39608;55.630;37.864;2023-04-25T22:08:33;98360.34;;;13.51;60.46
53715;BME280;39608;55.630;37.864;2023-04-25T22:13:35;98346.81;;;13.43;60.10
53715;BME280;39608;55.630;37.864;2023-04-25T22:18:38;98339.53;;;13.34;60.28
53715;BME280;39608;55.630;37.864;2023-04-25T22:23:43;98340.69;;;13.33;60.70
53715;BME280;39608;55.630;37.864;2023-04-25T22:28:45;98329.59;;;13.39;60.96
53715;BME280;39608;55.630;37.864;2023-04-25T22:33:47;98322.44;;;13.46;61.12
53715;BME280;39608;55.630;37.864;2023-04-25T22:38:50;98313.56;;;13.49;61.63
53715;BME280;39608;55.630;37.864;2023-04-25T22:43:53;98298.16;;;13.41;61.29
53715;BME280;39608;55.630;37.864;2023-04-25T22:48:55;98285.91;;;13.35;61.75
53715;BME280;39608;55.630;37.864;2023-04-25T22:53:58;98290.25;;;13.36;62.10
53715;BME280;39608;55.630;37.864;2023-04-25T22:59:01;98271.03;;;13.32;62.71
53715;BME280;39608;55.630;37.864;2023-04-25T23:04:04;98265.03;;;13.27;62.53
53715;BME280;39608;55.630;37.864;2023-04-25T23:09:08;98265.94;;;13.31;62.65
53715;BME280;39608;55.630;37.864;2023-04-25T23:14:12;98246.19;;;13.34;62.42
53715;BME280;39608;55.630;37.864;2023-04-25T23:19:14;98241.66;;;13.26;62.32
53715;BME280;39608;55.630;37.864;2023-04-25T23:24:17;98221.69;;;13.22;61.95
53715;BME280;39608;55.630;37.864;2023-04-25T23:29:20;98218.22;;;13.09;61.57
53715;BME280;39608;55.630;37.864;2023-04-25T23:34:22;98214.94;;;13.03;61.65
53715;BME280;39608;55.630;37.864;2023-04-25T23:39:25;98208.47;;;12.95;62.00
53715;BME280;39608;55.630;37.864;2023-04-25T23:44:28;98208.94;;;12.85;62.55
53715;BME280;39608;55.630;37.864;2023-04-25T23:49:31;98191.72;;;12.81;62.13
53715;BME280;39608;55.630;37.864;2023-04-25T23:54:34;98192.75;;;12.76;62.87
53715;BME280;39608;55.630;37.864;2023-04-25T23:59:36;98186.75;;;12.71;62.85
